createdAt,value
2022-09-11T00:02:29.599Z,17.20
2022-09-11T00:05:42.622Z,17.34
2022-09-11T00:09:01.822Z,17.52
2022-09-11T00:12:07.349Z,17.61
2022-09-11T00:15:12.544Z,18.15
2022-09-11T00:18:22.620Z,18.30
2022-09-11T00:21:28.580Z,17.82
2022-09-11T00:24:33.627Z,18.36
2022-09-11T00:27:38.369Z,18.47
2022-09-11T00:30:45.911Z,18.70
2022-09-11T00:33:52.682Z,18.87
2022-09-11T00:36:58.969Z,18.92
2022-09-11T00:40:04.426Z,18.88
2022-09-11T00:43:11.792Z,19.75
2022-09-11T00:46:17.105Z,19.88
2022-09-11T00:49:31.497Z,20.22
2022-09-11T00:52:42.081Z,21.36
2022-09-11T00:55:53.317Z,22.27
2022-09-11T00:58:59.841Z,22.92
2022-09-11T01:02:04.838Z,23.68
2022-09-11T01:05:11.287Z,23.38
2022-09-11T01:08:16.163Z,25.19
2022-09-11T01:11:41.413Z,25.62
2022-09-11T01:14:58.034Z,25.44
2022-09-11T01:18:30.374Z,26.32
2022-09-11T01:22:03.258Z,26.82
2022-09-11T01:25:25.106Z,26.64
2022-09-11T01:28:40.939Z,25.89
2022-09-11T01:32:25.848Z,25.19
2022-09-11T01:35:48.678Z,26.08
2022-09-11T01:38:58.479Z,26.84
2022-09-11T01:42:15.703Z,26.55
2022-09-11T01:45:23.062Z,26.13
2022-09-11T01:48:34.869Z,25.65
2022-09-11T01:51:42.226Z,25.62
2022-09-11T01:55:00.657Z,26.73
2022-09-11T01:58:21.247Z,26.26
2022-09-11T02:01:32.142Z,26.23
2022-09-11T02:05:02.899Z,25.77
2022-09-11T02:08:20.056Z,25.24
2022-09-11T02:11:26.420Z,24.80
2022-09-11T02:14:51.831Z,24.20
2022-09-11T02:18:12.630Z,24.33
2022-09-11T02:21:17.149Z,23.72
2022-09-11T02:24:26.441Z,23.92
2022-09-11T02:27:34.697Z,24.14
2022-09-11T02:30:43.908Z,23.96
2022-09-11T02:33:50.539Z,24.26
2022-09-11T02:37:04.224Z,23.94
2022-09-11T02:40:28.036Z,24.19
2022-09-11T02:43:56.954Z,24.09
2022-09-11T02:47:24.995Z,23.94
2022-09-11T02:50:50.412Z,24.29
2022-09-11T02:54:33.258Z,24.06
2022-09-11T02:57:46.835Z,23.75
2022-09-11T03:00:52.022Z,23.48
2022-09-11T03:03:56.553Z,23.97
2022-09-11T03:07:01.278Z,23.89
2022-09-11T03:10:09.382Z,24.23
2022-09-11T03:13:15.793Z,23.77
2022-09-11T03:16:22.386Z,24.20
2022-09-11T03:19:28.455Z,23.89
2022-09-11T03:22:33.374Z,23.85
2022-09-11T03:25:38.236Z,23.66
2022-09-11T03:28:44.692Z,23.18
2022-09-11T03:31:53.771Z,23.28
2022-09-11T03:34:58.855Z,23.51
2022-09-11T03:38:03.421Z,23.42
2022-09-11T03:41:10.138Z,23.31
2022-09-11T03:44:15.295Z,23.59
2022-09-11T03:47:21.420Z,23.64
2022-09-11T03:50:26.308Z,23.64
2022-09-11T03:53:33.365Z,23.78
2022-09-11T03:56:38.354Z,23.39
2022-09-11T03:59:43.746Z,23.29
2022-09-11T04:02:48.971Z,22.98
2022-09-11T04:06:07.567Z,23.24
2022-09-11T04:09:14.005Z,23.57
2022-09-11T04:12:19.437Z,23.42
2022-09-11T04:15:24.416Z,23.44
2022-09-11T04:18:29.364Z,23.55
2022-09-11T04:21:35.755Z,23.66
2022-09-11T04:24:41.154Z,23.53
2022-09-11T04:27:46.409Z,23.92
2022-09-11T04:30:53.489Z,23.36
2022-09-11T04:33:58.940Z,23.53
2022-09-11T04:37:08.733Z,23.52
2022-09-11T04:40:14.373Z,23.61
2022-09-11T04:43:21.253Z,23.77
2022-09-11T04:46:26.559Z,23.72
2022-09-11T04:49:32.318Z,23.45
2022-09-11T04:52:37.320Z,23.89
2022-09-11T04:55:44.766Z,23.49
2022-09-11T04:59:01.115Z,23.66
2022-09-11T05:02:07.012Z,23.75
2022-09-11T05:05:16.108Z,23.78
2022-09-11T05:08:21.089Z,23.98
2022-09-11T05:11:26.952Z,23.50
2022-09-11T05:14:33.675Z,23.75
2022-09-11T05:17:40.417Z,24.04
2022-09-11T05:20:47.703Z,23.77
2022-09-11T05:23:54.973Z,23.66
2022-09-11T05:27:02.766Z,24.12
2022-09-11T05:30:08.627Z,23.77
2022-09-11T05:33:14.763Z,23.94
2022-09-11T05:36:20.110Z,23.56
2022-09-11T05:39:26.240Z,23.71
2022-09-11T05:42:32.209Z,23.22
2022-09-11T05:45:43.407Z,23.77
2022-09-11T05:48:49.338Z,23.81
2022-09-11T05:51:54.276Z,23.95
2022-09-11T05:54:59.281Z,23.93
2022-09-11T05:58:04.677Z,23.95
2022-09-11T06:01:13.073Z,23.87
2022-09-11T06:04:20.378Z,23.33
2022-09-11T06:07:28.735Z,23.44
2022-09-11T06:10:33.770Z,23.56
2022-09-11T06:13:44.206Z,23.61
2022-09-11T06:16:50.861Z,24.06
2022-09-11T06:19:56.970Z,23.81
2022-09-11T06:23:06.078Z,24.21
2022-09-11T06:26:18.546Z,24.05
2022-09-11T06:29:24.279Z,23.99
2022-09-11T06:32:29.120Z,23.78
2022-09-11T06:35:34.353Z,23.74
2022-09-11T06:38:39.619Z,23.06
2022-09-11T06:41:48.286Z,23.55
2022-09-11T06:44:53.232Z,23.27
2022-09-11T06:47:57.848Z,23.20
2022-09-11T06:51:05.552Z,23.35
2022-09-11T06:54:12.439Z,22.92
2022-09-11T06:57:17.596Z,23.92
2022-09-11T07:00:22.259Z,24.02
2022-09-11T07:03:27.488Z,24.22
2022-09-11T07:06:32.384Z,24.20
2022-09-11T07:09:42.289Z,23.81
2022-09-11T07:12:49.235Z,24.25
2022-09-11T07:16:01.187Z,24.02
2022-09-11T07:19:06.663Z,23.99
2022-09-11T07:23:03.336Z,23.88
2022-09-11T07:26:12.128Z,23.63
2022-09-11T07:29:17.589Z,23.66
2022-09-11T07:32:23.889Z,23.29
2022-09-11T07:35:31.008Z,23.35
2022-09-11T07:38:43.943Z,23.18
2022-09-11T07:41:54.248Z,22.45
2022-09-11T07:45:12.367Z,23.00
2022-09-11T07:48:23.869Z,22.78
2022-09-11T07:51:30.465Z,22.98
2022-09-11T07:54:40.424Z,23.01
2022-09-11T07:57:46.619Z,22.63
2022-09-11T08:01:00.307Z,22.92
2022-09-11T08:04:12.847Z,22.39
2022-09-11T08:07:18.761Z,22.55
2022-09-11T08:10:27.596Z,22.80
2022-09-11T08:13:35.579Z,22.33
2022-09-11T08:16:40.466Z,22.64
2022-09-11T08:19:46.371Z,22.37
2022-09-11T08:22:51.680Z,22.29
2022-09-11T08:25:59.923Z,22.27
2022-09-11T08:29:06.223Z,21.81
2022-09-11T08:32:11.393Z,21.90
2022-09-11T08:35:17.942Z,22.20
2022-09-11T08:38:22.927Z,21.90
2022-09-11T08:41:54.502Z,22.14
2022-09-11T08:45:02.226Z,21.61
2022-09-11T08:48:15.003Z,21.57
2022-09-11T08:51:20.984Z,21.72
2022-09-11T08:54:37.529Z,21.53
2022-09-11T08:58:14.984Z,21.34
2022-09-11T09:01:28.213Z,21.28
2022-09-11T09:05:00.283Z,21.08
2022-09-11T09:08:20.372Z,20.97
2022-09-11T09:11:46.717Z,20.79
2022-09-11T09:15:19.419Z,20.68
2022-09-11T09:18:39.204Z,20.56
2022-09-11T09:22:12.909Z,20.36
2022-09-11T09:25:24.927Z,19.93
2022-09-11T09:28:45.318Z,20.46
2022-09-11T09:31:59.333Z,19.99
2022-09-11T09:35:12.034Z,20.10
2022-09-11T09:38:27.150Z,19.99
2022-09-11T09:41:42.165Z,19.75
2022-09-11T09:45:27.436Z,19.76
2022-09-11T09:48:40.729Z,19.66
2022-09-11T09:51:48.194Z,19.79
2022-09-11T09:55:02.284Z,19.76
2022-09-11T09:58:13.280Z,19.40
2022-09-11T10:01:46.130Z,19.29
2022-09-11T10:05:09.676Z,19.09
2022-09-11T10:08:45.422Z,18.92
2022-09-11T10:12:14.883Z,18.22
2022-09-11T10:15:24.600Z,18.43
2022-09-11T10:18:39.375Z,18.83
2022-09-11T10:21:45.166Z,18.33
2022-09-11T10:25:11.699Z,18.17
2022-09-11T10:28:20.269Z,18.66
2022-09-11T10:31:31.970Z,18.62
2022-09-11T10:34:42.144Z,18.43
2022-09-11T10:37:46.910Z,18.31
2022-09-11T10:41:08.529Z,18.20
2022-09-11T10:44:17.546Z,17.76
2022-09-11T10:47:32.856Z,18.18
2022-09-11T10:50:37.894Z,18.13
2022-09-11T10:54:00.504Z,17.85
2022-09-11T10:57:26.210Z,17.63
2022-09-11T11:00:33.017Z,17.40
2022-09-11T11:03:37.797Z,17.68
2022-09-11T11:06:59.103Z,17.63
2022-09-11T11:10:33.274Z,17.46
2022-09-11T11:14:08.260Z,16.96
2022-09-11T11:17:46.796Z,17.21
2022-09-11T11:21:11.417Z,17.28
2022-09-11T11:24:25.089Z,17.11
2022-09-11T11:28:14.180Z,16.93
2022-09-11T11:31:29.268Z,16.83
2022-09-11T11:35:05.849Z,16.99
2022-09-11T11:38:32.526Z,16.98
2022-09-11T11:41:45.998Z,16.74
2022-09-11T11:45:21.849Z,16.74
2022-09-11T11:48:28.886Z,16.45
2022-09-11T11:51:49.136Z,16.26
2022-09-11T11:55:05.109Z,16.00
2022-09-11T11:58:15.560Z,16.16
2022-09-11T12:01:37.410Z,16.28
2022-09-11T12:05:11.407Z,16.38
2022-09-11T12:08:17.631Z,16.26
2022-09-11T12:11:31.386Z,16.30
2022-09-11T12:14:36.259Z,15.87
2022-09-11T12:17:44.253Z,16.00
2022-09-11T12:20:48.742Z,15.80
2022-09-11T12:24:05.389Z,15.86
2022-09-11T12:27:35.335Z,15.76
2022-09-11T13:57:25.478Z,14.54
2022-09-11T15:52:53.178Z,13.23
2022-09-11T21:41:12.253Z,15.26
2022-09-11T22:21:04.136Z,15.57
2022-09-11T22:24:09.007Z,15.19
2022-09-11T22:27:14.200Z,15.03
2022-09-11T22:30:19.361Z,15.52
2022-09-11T22:33:24.325Z,15.62
2022-09-11T22:36:31.212Z,15.59
2022-09-11T22:39:35.948Z,16.05
2022-09-11T22:42:41.093Z,15.69
2022-09-11T22:45:52.717Z,15.93
2022-09-11T22:48:57.916Z,15.78
2022-09-11T22:52:03.007Z,15.99
2022-09-11T22:55:09.077Z,15.67
2022-09-11T22:58:15.342Z,15.89
2022-09-11T23:01:22.509Z,15.94
2022-09-11T23:04:27.332Z,15.82
2022-09-11T23:07:32.362Z,16.03
2022-09-11T23:10:45.224Z,15.79
2022-09-11T23:13:51.556Z,15.98
2022-09-11T23:16:56.376Z,16.77
2022-09-11T23:20:00.860Z,16.05
2022-09-11T23:23:07.794Z,16.45
2022-09-11T23:26:15.506Z,16.35
2022-09-11T23:29:20.584Z,16.03
2022-09-11T23:32:25.368Z,16.24
2022-09-11T23:35:30.745Z,15.88
2022-09-11T23:38:35.364Z,16.41
2022-09-11T23:41:40.400Z,16.52
2022-09-11T23:44:45.386Z,15.95
2022-09-11T23:47:51.763Z,16.64
2022-09-11T23:50:59.030Z,16.56
2022-09-11T23:54:03.885Z,16.66
2022-09-11T23:57:08.577Z,16.40
